createdAt,value
2019-04-22T00:00:59.507Z,24.87
2019-04-22T00:03:40.253Z,29.20
2019-04-22T00:06:25.905Z,28.33
2019-04-22T00:08:56.154Z,32.10
2019-04-22T00:11:31.883Z,28.37
2019-04-22T00:13:56.881Z,27.53
2019-04-22T00:16:43.293Z,27.00
2019-04-22T00:19:17.662Z,24.23
2019-04-22T00:24:07.414Z,27.50
2019-04-22T00:26:39.954Z,27.43
2019-04-22T00:29:24.403Z,23.47
2019-04-22T00:31:43.716Z,26.63
2019-04-22T00:34:14.400Z,26.80
2019-04-22T00:36:43.755Z,21.47
2019-04-22T00:39:22.144Z,22.83
2019-04-22T00:41:50.786Z,20.30
2019-04-22T00:44:21.433Z,22.60
2019-04-22T00:46:52.241Z,20.23
2019-04-22T00:50:03.649Z,23.53
2019-04-22T00:54:21.485Z,23.90
2019-04-22T00:56:47.762Z,22.80
2019-04-22T00:59:23.572Z,24.73
2019-04-22T01:02:00.700Z,25.10
2019-04-22T01:04:35.072Z,22.97
2019-04-22T01:06:57.609Z,23.97
2019-04-22T01:09:30.076Z,22.20
2019-04-22T01:12:04.189Z,25.83
2019-04-22T01:14:31.968Z,24.17
2019-04-22T01:17:01.563Z,21.70
2019-04-22T01:19:38.711Z,21.77
2019-04-22T01:22:06.114Z,23.83
2019-04-22T01:24:32.347Z,23.10
2019-04-22T01:27:04.864Z,27.53
2019-04-22T01:29:32.130Z,24.87
2019-04-22T01:31:49.116Z,23.60
2019-04-22T01:34:34.896Z,26.43
2019-04-22T01:37:07.605Z,25.97
2019-04-22T01:39:45.517Z,24.97
2019-04-22T01:42:34.819Z,26.70
2019-04-22T01:44:45.522Z,28.83
2019-04-22T01:47:23.252Z,31.37
2019-04-22T01:49:45.889Z,28.37
2019-04-22T01:52:20.417Z,31.07
2019-04-22T01:54:54.615Z,30.17
2019-04-22T01:57:22.667Z,29.27
2019-04-22T01:59:48.753Z,29.40
2019-04-22T02:02:31.067Z,28.77
2019-04-22T02:05:01.205Z,24.40
2019-04-22T02:07:29.557Z,25.87
2019-04-22T02:12:35.454Z,24.90
2019-04-22T02:14:57.917Z,25.23
2019-04-22T02:17:39.125Z,26.63
2019-04-22T02:20:04.636Z,32.97
2019-04-22T02:22:52.701Z,25.73
2019-04-22T02:25:08.804Z,24.80
2019-04-22T02:27:43.295Z,22.50
2019-04-22T02:30:16.278Z,23.70
2019-04-22T02:32:59.039Z,25.67
2019-04-22T02:35:34.660Z,23.93
2019-04-22T02:37:45.100Z,23.73
2019-04-22T02:40:38.067Z,23.00
2019-04-22T02:43:07.371Z,21.83
2019-04-22T02:45:27.199Z,25.83
2019-04-22T02:48:06.684Z,23.53
2019-04-22T02:50:43.918Z,22.77
2019-04-22T02:53:01.322Z,24.80
2019-04-22T02:55:33.142Z,23.03
2019-04-22T02:57:57.081Z,22.00
2019-04-22T03:05:45.509Z,21.60
2019-04-22T03:08:21.231Z,25.43
2019-04-22T03:10:47.344Z,22.43
2019-04-22T03:13:26.702Z,24.13
2019-04-22T03:15:50.880Z,22.40
2019-04-22T03:18:20.014Z,23.53
2019-04-22T03:20:51.953Z,23.03
2019-04-22T03:23:27.299Z,23.00
2019-04-22T03:28:18.726Z,20.93
2019-04-22T03:31:54.882Z,26.03
2019-04-22T03:33:51.717Z,24.33
2019-04-22T03:36:48.437Z,23.60
2019-04-22T03:39:06.724Z,23.67
2019-04-22T03:41:27.322Z,24.40
2019-04-22T03:43:56.434Z,28.73
2019-04-22T03:46:14.804Z,28.53
2019-04-22T03:49:07.202Z,24.87
2019-04-22T03:51:31.065Z,24.87
2019-04-22T03:54:02.916Z,26.63
2019-04-22T03:56:56.456Z,23.70
2019-04-22T03:59:00.718Z,25.00
2019-04-22T04:01:37.162Z,24.90
2019-04-22T04:04:01.113Z,27.23
2019-04-22T04:06:32.682Z,24.30
2019-04-22T04:09:04.219Z,20.47
2019-04-22T04:11:38.179Z,24.47
2019-04-22T04:14:10.008Z,25.53
2019-04-22T04:16:47.724Z,26.77
2019-04-22T04:19:07.143Z,27.43
2019-04-22T04:21:34.845Z,25.50
2019-04-22T04:24:32.311Z,20.37
2019-04-22T04:34:30.866Z,20.20
2019-04-22T04:36:42.256Z,20.97
2019-04-22T04:39:15.438Z,21.23
2019-04-22T04:42:02.076Z,23.53
2019-04-22T04:44:23.085Z,24.27
2019-04-22T04:46:51.641Z,25.40
2019-04-22T04:49:18.722Z,23.73
2019-04-22T04:51:46.943Z,28.60
2019-04-22T04:56:46.571Z,21.63
2019-04-22T05:02:00.093Z,24.87
2019-04-22T05:04:46.500Z,23.37
2019-04-22T05:07:12.749Z,25.83
2019-04-22T05:09:53.209Z,20.17
2019-04-22T05:14:44.595Z,24.07
2019-04-22T05:17:15.772Z,23.87
2019-04-22T05:19:37.816Z,22.07
2019-04-22T05:22:18.935Z,20.73
2019-04-22T05:24:51.875Z,23.80
2019-04-22T05:27:19.787Z,21.40
2019-04-22T05:30:03.426Z,21.33
2019-04-22T05:32:17.651Z,21.17
2019-04-22T05:34:48.649Z,21.97
2019-04-22T05:37:14.707Z,19.83
2019-04-22T05:39:45.457Z,23.93
2019-04-22T05:42:13.912Z,21.70
2019-04-22T05:44:50.010Z,24.27
2019-04-22T05:47:14.824Z,20.67
2019-04-22T05:49:48.590Z,23.13
2019-04-22T05:52:21.217Z,21.70
2019-04-22T05:54:59.541Z,21.80
2019-04-22T05:59:54.681Z,21.53
2019-04-22T06:02:33.858Z,20.30
2019-04-22T06:05:01.770Z,22.33
2019-04-22T06:07:26.751Z,20.73
2019-04-22T06:10:02.775Z,19.47
2019-04-22T06:12:23.364Z,20.87
2019-04-22T06:15:01.388Z,21.20
2019-04-22T06:17:59.015Z,21.37
2019-04-22T06:20:02.272Z,20.60
2019-04-22T06:22:50.531Z,19.50
2019-04-22T06:25:17.012Z,19.80
2019-04-22T06:30:10.850Z,16.80
2019-04-22T06:32:59.045Z,16.90
2019-04-22T06:35:16.615Z,20.97
2019-04-22T06:37:45.985Z,17.97
2019-04-22T06:40:14.538Z,16.80
2019-04-22T06:42:42.471Z,19.50
2019-04-22T06:50:18.362Z,16.80
2019-04-22T06:52:50.277Z,17.90
2019-04-22T06:55:22.974Z,13.43
2019-04-22T06:57:52.393Z,20.35
2019-04-22T07:00:17.475Z,20.43
2019-04-22T07:03:10.558Z,14.55
2019-04-22T07:05:25.937Z,15.53
2019-04-22T07:08:02.668Z,17.07
2019-04-22T07:10:35.031Z,17.50
2019-04-22T07:12:53.915Z,15.50
2019-04-22T07:15:42.386Z,12.30
2019-04-22T07:18:07.588Z,15.23
2019-04-22T07:20:31.640Z,14.33
2019-04-22T07:23:03.629Z,18.15
2019-04-22T07:25:32.863Z,13.53
2019-04-22T07:28:08.290Z,13.55
2019-04-22T07:30:37.426Z,13.18
2019-04-22T07:35:51.246Z,14.47
2019-04-22T07:38:10.787Z,11.75
2019-04-22T07:40:43.922Z,11.75
2019-04-22T07:43:14.910Z,12.85
2019-04-22T07:45:43.756Z,12.40
2019-04-22T07:53:13.298Z,11.35
2019-04-22T07:55:47.280Z,7.58
2019-04-22T07:58:18.563Z,8.45
2019-04-22T08:00:53.034Z,8.03
2019-04-22T08:03:47.724Z,8.65
2019-04-22T08:05:58.625Z,10.28
2019-04-22T08:08:25.745Z,9.53
2019-04-22T08:10:57.937Z,9.55
2019-04-22T08:13:24.760Z,9.18
2019-04-22T08:15:58.214Z,9.75
2019-04-22T08:18:28.985Z,7.60
2019-04-22T08:20:58.872Z,9.53
2019-04-22T08:23:31.849Z,6.62
2019-04-22T08:26:16.797Z,11.88
2019-04-22T08:28:32.013Z,8.73
2019-04-22T08:31:05.157Z,6.42
2019-04-22T08:33:33.386Z,5.85
2019-04-22T08:36:10.848Z,7.03
2019-04-22T08:38:42.086Z,6.53
2019-04-22T08:41:16.531Z,6.55
2019-04-22T08:43:49.895Z,7.25
2019-04-22T08:46:17.100Z,6.65
2019-04-22T08:48:47.844Z,7.30
2019-04-22T08:51:13.611Z,7.80
2019-04-22T08:53:56.847Z,8.03
2019-04-22T08:58:53.728Z,5.62
2019-04-22T09:03:56.606Z,8.60
2019-04-22T09:06:29.963Z,7.65
2019-04-22T09:08:54.183Z,8.90
2019-04-22T09:11:27.104Z,7.28
2019-04-22T09:14:06.222Z,8.48
2019-04-22T09:16:33.204Z,5.45
2019-04-22T09:24:02.148Z,4.95
2019-04-22T09:26:34.757Z,8.65
2019-04-22T09:29:04.968Z,5.20
2019-04-22T09:31:29.204Z,6.05
2019-04-22T09:34:03.600Z,10.95
2019-04-22T09:36:36.094Z,7.50
2019-04-22T09:39:01.665Z,6.20
2019-04-22T09:41:42.878Z,5.70
2019-04-22T09:44:34.781Z,6.25
2019-04-22T09:47:00.305Z,6.22
2019-04-22T09:49:36.988Z,6.12
2019-04-22T09:52:03.240Z,7.22
2019-04-22T09:54:41.439Z,6.87
2019-04-22T09:57:01.527Z,7.60
2019-04-22T09:59:34.977Z,5.97
2019-04-22T10:02:19.870Z,5.53
2019-04-22T10:04:40.217Z,6.17
2019-04-22T10:07:13.131Z,7.00
2019-04-22T10:12:32.351Z,5.90
2019-04-22T10:14:48.012Z,7.00
2019-04-22T10:17:15.644Z,5.40
2019-04-22T10:19:49.460Z,6.10
2019-04-22T10:22:20.026Z,6.65
2019-04-22T10:24:45.014Z,9.63
2019-04-22T10:27:21.351Z,8.78
2019-04-22T10:29:54.179Z,8.68
2019-04-22T10:32:19.050Z,7.50
2019-04-22T10:34:38.592Z,9.55
2019-04-22T10:37:06.411Z,7.15
2019-04-22T10:39:43.231Z,7.58
2019-04-22T10:42:05.030Z,6.30
2019-04-22T10:44:35.313Z,6.22
2019-04-22T10:47:06.293Z,8.05
2019-04-22T10:49:36.178Z,9.10
2019-04-22T10:52:06.703Z,6.60
2019-04-22T10:54:37.663Z,8.68
2019-04-22T10:57:07.079Z,7.25
2019-04-22T10:59:36.548Z,8.60
2019-04-22T11:02:05.890Z,6.33
2019-04-22T11:04:36.420Z,7.67
2019-04-22T11:07:10.108Z,9.68
2019-04-22T11:09:49.421Z,9.43
2019-04-22T11:12:13.621Z,5.67
2019-04-22T11:14:42.767Z,6.00
2019-04-22T11:17:11.350Z,7.47
2019-04-22T11:19:41.546Z,9.05
2019-04-22T11:22:19.013Z,8.78
2019-04-22T11:24:44.345Z,6.30
2019-04-22T11:27:14.922Z,6.15
2019-04-22T11:29:45.672Z,5.75
2019-04-22T11:32:15.154Z,7.17
2019-04-22T11:34:44.927Z,7.50
2019-04-22T11:37:14.691Z,6.50
2019-04-22T11:39:45.116Z,7.25
2019-04-22T11:42:14.416Z,9.18
2019-04-22T11:44:43.730Z,10.13
2019-04-22T11:47:13.040Z,8.03
2019-04-22T11:49:43.805Z,10.40
2019-04-22T11:52:16.430Z,7.60
2019-04-22T11:54:44.588Z,9.48
2019-04-22T11:57:15.078Z,7.85
2019-04-22T11:59:45.030Z,9.00
2019-04-22T12:02:17.666Z,6.03
2019-04-22T12:04:47.753Z,9.20
2019-04-22T12:07:17.329Z,6.95
2019-04-22T12:09:47.871Z,9.18
2019-04-22T12:12:18.805Z,8.48
2019-04-22T12:14:50.076Z,8.65
2019-04-22T12:17:22.339Z,7.40
2019-04-22T12:19:52.681Z,7.62
2019-04-22T12:22:25.093Z,8.93
2019-04-22T12:24:56.560Z,12.18
2019-04-22T12:27:28.754Z,10.35
2019-04-22T12:30:00.837Z,9.25
2019-04-22T12:32:31.685Z,14.58
2019-04-22T12:35:01.858Z,11.65
2019-04-22T12:37:39.633Z,8.85
2019-04-22T12:40:02.713Z,12.50
2019-04-22T12:42:33.237Z,8.00
2019-04-22T12:45:04.212Z,7.90
2019-04-22T12:47:33.751Z,10.70
2019-04-22T12:50:12.884Z,8.38
2019-04-22T12:52:43.605Z,8.95
2019-04-22T12:55:08.020Z,9.43
2019-04-22T12:57:38.987Z,12.13
2019-04-22T13:00:11.505Z,8.80
2019-04-22T13:02:41.016Z,9.80
2019-04-22T13:05:12.441Z,11.00
2019-04-22T13:07:41.884Z,7.97
2019-04-22T13:10:13.810Z,8.33
2019-04-22T13:12:44.462Z,8.75
2019-04-22T13:15:16.195Z,10.03
2019-04-22T13:17:46.283Z,11.57
2019-04-22T13:20:18.018Z,8.63
2019-04-22T13:22:48.620Z,8.63
2019-04-22T13:25:20.713Z,8.98
2019-04-22T13:27:51.176Z,7.83
2019-04-22T13:30:22.773Z,9.98
2019-04-22T13:32:52.686Z,8.20
2019-04-22T13:35:24.108Z,8.38
2019-04-22T13:37:54.875Z,11.48
2019-04-22T13:40:25.178Z,7.47
2019-04-22T13:42:55.629Z,7.67
2019-04-22T13:45:27.353Z,7.80
2019-04-22T13:48:11.200Z,10.53
2019-04-22T13:50:56.470Z,9.68
2019-04-22T13:56:07.434Z,7.15
2019-04-22T13:58:15.733Z,6.90
2019-04-22T14:00:36.275Z,8.43
2019-04-22T14:03:24.626Z,6.85
2019-04-22T14:05:56.789Z,11.35
2019-04-22T14:08:26.936Z,7.15
2019-04-22T14:10:57.849Z,7.72
2019-04-22T14:13:27.922Z,9.68
2019-04-22T14:15:59.462Z,11.95
2019-04-22T14:18:28.940Z,8.93
2019-04-22T14:20:58.660Z,8.88
2019-04-22T14:23:28.699Z,6.05
2019-04-22T14:25:59.123Z,6.50
2019-04-22T14:28:29.239Z,8.83
2019-04-22T14:31:00.409Z,7.15
2019-04-22T14:33:30.161Z,11.60
2019-04-22T14:36:00.536Z,7.47
2019-04-22T14:38:30.276Z,6.65
2019-04-22T14:41:00.836Z,7.53
2019-04-22T14:44:00.583Z,11.80
2019-04-22T14:46:29.530Z,8.13
2019-04-22T14:48:57.624Z,12.35
2019-04-22T14:51:21.257Z,9.90
2019-04-22T14:53:51.728Z,10.23
2019-04-22T14:56:06.511Z,7.35
2019-04-22T14:58:37.254Z,8.70
2019-04-22T15:01:08.593Z,6.95
2019-04-22T15:03:41.893Z,6.50
2019-04-22T15:06:10.437Z,7.83
2019-04-22T15:08:39.892Z,7.80
2019-04-22T15:11:10.842Z,5.47
2019-04-22T15:13:41.214Z,6.03
2019-04-22T15:16:25.679Z,10.93
2019-04-22T15:19:07.477Z,5.92
2019-04-22T15:21:38.658Z,5.55
2019-04-22T15:27:14.304Z,5.90
2019-04-22T15:29:43.631Z,10.40
2019-04-22T15:32:13.524Z,4.17
2019-04-22T15:34:43.587Z,6.62
2019-04-22T15:37:13.978Z,7.17
2019-04-22T15:39:43.743Z,8.63
2019-04-22T15:42:21.842Z,3.62
2019-04-22T15:44:46.213Z,5.92
2019-04-22T15:47:15.646Z,4.25
2019-04-22T15:49:45.887Z,4.60
2019-04-22T15:52:16.669Z,5.92
2019-04-22T15:54:50.000Z,7.55
2019-04-22T15:57:17.288Z,5.30
2019-04-22T16:00:05.400Z,7.67
2019-04-22T16:02:19.336Z,4.20
2019-04-22T16:04:48.836Z,5.20
2019-04-22T16:07:21.581Z,6.67
2019-04-22T16:09:49.872Z,5.55
2019-04-22T16:12:27.571Z,7.37
2019-04-22T16:14:53.482Z,3.45
2019-04-22T16:17:22.487Z,5.12
2019-04-22T16:19:53.203Z,5.05
2019-04-22T16:22:24.932Z,5.10
2019-04-22T16:25:11.505Z,6.83
2019-04-22T16:27:40.997Z,9.65
2019-04-22T16:30:10.938Z,4.03
2019-04-22T16:32:41.475Z,4.08
2019-04-22T16:35:10.884Z,6.03
2019-04-22T16:37:41.021Z,5.05
2019-04-22T16:40:10.736Z,6.08
2019-04-22T16:42:45.850Z,7.03
2019-04-22T16:45:11.621Z,5.58
2019-04-22T16:47:41.806Z,5.15
2019-04-22T16:50:11.392Z,4.97
2019-04-22T16:52:41.788Z,4.90
2019-04-22T16:55:12.715Z,4.20
2019-04-22T16:57:42.211Z,7.40
2019-04-22T17:00:13.114Z,6.05
2019-04-22T17:02:50.048Z,7.10
2019-04-22T17:05:19.970Z,9.00
2019-04-22T17:07:49.981Z,4.72
2019-04-22T17:10:19.661Z,3.05
2019-04-22T17:12:58.254Z,5.25
2019-04-22T17:15:20.706Z,5.55
2019-04-22T17:17:51.634Z,4.78
2019-04-22T17:20:21.147Z,3.55
2019-04-22T17:22:51.563Z,7.20
2019-04-22T17:25:22.374Z,3.27
2019-04-22T17:27:52.087Z,6.37
2019-04-22T17:30:22.283Z,3.72
2019-04-22T17:32:52.481Z,4.00
2019-04-22T17:35:24.122Z,3.62
2019-04-22T17:38:02.985Z,3.12
2019-04-22T17:40:44.899Z,3.65
2019-04-22T17:43:32.671Z,5.25
2019-04-22T17:45:57.278Z,6.20
2019-04-22T17:48:30.399Z,6.35
2019-04-22T17:51:10.537Z,2.80
2019-04-22T17:53:40.403Z,3.90
2019-04-22T17:56:10.164Z,5.72
2019-04-22T17:58:40.221Z,5.17
2019-04-22T18:01:11.888Z,3.62
2019-04-22T18:03:25.835Z,3.83
2019-04-22T18:05:53.260Z,3.10
2019-04-22T18:08:44.193Z,3.87
2019-04-22T18:11:13.473Z,3.62
2019-04-22T18:13:44.579Z,4.10
2019-04-22T18:16:14.530Z,2.75
2019-04-22T18:18:42.845Z,3.55
2019-04-22T18:21:08.887Z,4.90
2019-04-22T18:23:31.026Z,3.65
2019-04-22T18:26:14.833Z,4.17
2019-04-22T18:28:52.486Z,4.12
2019-04-22T18:31:15.653Z,2.83
2019-04-22T18:33:48.939Z,5.50
2019-04-22T18:36:14.057Z,7.00
2019-04-22T18:38:58.394Z,7.73
2019-04-22T18:41:18.220Z,5.57
2019-04-22T18:44:00.502Z,9.77
2019-04-22T18:46:22.331Z,2.93
2019-04-22T18:48:55.755Z,5.17
2019-04-22T18:54:13.451Z,4.77
2019-04-22T18:56:46.538Z,5.60
2019-04-22T18:59:08.422Z,5.23
2019-04-22T19:01:28.168Z,2.90
2019-04-22T19:04:05.841Z,2.50
2019-04-22T19:06:51.896Z,2.93
2019-04-22T19:09:27.373Z,5.33
2019-04-22T19:12:18.950Z,3.27
2019-04-22T19:14:45.424Z,6.00
2019-04-22T19:17:18.808Z,3.27
2019-04-22T19:19:43.736Z,4.23
2019-04-22T19:22:14.889Z,4.60
2019-04-22T19:24:41.824Z,5.50
2019-04-22T19:27:16.295Z,7.50
2019-04-22T19:29:55.801Z,5.50
2019-04-22T19:32:23.037Z,3.63
2019-04-22T19:34:47.696Z,4.40
2019-04-22T19:37:17.350Z,3.43
2019-04-22T19:40:01.210Z,3.43
2019-04-22T19:42:31.031Z,3.47
2019-04-22T19:44:55.227Z,7.27
2019-04-22T19:49:58.091Z,4.30
2019-04-22T19:52:28.886Z,4.17
2019-04-22T19:55:01.786Z,5.70
2019-04-22T19:57:26.391Z,8.63
2019-04-22T19:59:55.866Z,6.77
2019-04-22T20:02:42.056Z,9.07
2019-04-22T20:05:22.005Z,4.87
2019-04-22T20:07:41.698Z,5.47
2019-04-22T20:10:22.349Z,4.47
2019-04-22T20:12:42.502Z,7.93
2019-04-22T20:15:20.025Z,5.03
2019-04-22T20:18:19.151Z,8.63
2019-04-22T20:20:27.772Z,3.50
2019-04-22T20:22:52.082Z,5.50
2019-04-22T20:25:16.722Z,7.13
2019-04-22T20:28:01.600Z,12.90
2019-04-22T20:30:34.648Z,9.83
2019-04-22T20:32:59.245Z,7.80
2019-04-22T20:35:39.712Z,4.93
2019-04-22T20:38:04.265Z,5.47
2019-04-22T20:40:33.209Z,5.33
2019-04-22T20:43:17.599Z,8.47
2019-04-22T20:45:39.549Z,4.47
2019-04-22T20:47:57.343Z,6.93
2019-04-22T20:50:42.113Z,7.37
2019-04-22T20:53:18.632Z,10.10
2019-04-22T20:55:43.618Z,8.03
2019-04-22T20:58:15.328Z,7.67
2019-04-22T21:00:39.020Z,7.20
2019-04-22T21:03:05.385Z,5.80
2019-04-22T21:05:38.247Z,7.93
2019-04-22T21:08:21.035Z,5.80
2019-04-22T21:10:45.105Z,4.33
2019-04-22T21:13:15.494Z,10.90
2019-04-22T21:16:00.791Z,3.83
2019-04-22T21:18:19.231Z,11.10
2019-04-22T21:20:56.155Z,9.10
2019-04-22T21:23:19.892Z,8.00
2019-04-22T21:25:57.253Z,8.20
2019-04-22T21:28:25.648Z,9.23
2019-04-22T21:30:54.645Z,6.43
2019-04-22T21:33:20.976Z,8.13
2019-04-22T21:36:20.663Z,7.63
2019-04-22T21:38:33.185Z,5.97
2019-04-22T21:41:03.474Z,6.07
2019-04-22T21:43:38.608Z,7.03
2019-04-22T21:46:08.746Z,10.30
2019-04-22T21:48:36.664Z,6.20
2019-04-22T21:51:10.840Z,5.27
2019-04-22T21:53:45.552Z,6.47
2019-04-22T21:56:27.320Z,5.20
2019-04-22T21:58:48.399Z,7.20
2019-04-22T22:01:18.979Z,5.83
2019-04-22T22:03:58.757Z,8.33
2019-04-22T22:06:16.666Z,9.93
2019-04-22T22:08:56.890Z,5.13
2019-04-22T22:11:26.090Z,7.60
2019-04-22T22:13:55.141Z,7.73
2019-04-22T22:16:24.759Z,10.53
2019-04-22T22:19:02.008Z,9.57
2019-04-22T22:21:42.033Z,6.57
2019-04-22T22:24:05.645Z,9.20
2019-04-22T22:26:38.447Z,6.27
2019-04-22T22:29:14.036Z,13.50
2019-04-22T22:31:40.134Z,8.63
2019-04-22T22:34:12.694Z,6.63
2019-04-22T22:36:31.309Z,6.60
2019-04-22T22:39:05.093Z,9.30
2019-04-22T22:41:18.341Z,7.53
2019-04-22T22:43:51.269Z,11.77
2019-04-22T22:46:31.900Z,8.73
2019-04-22T22:49:12.356Z,10.57
2019-04-22T22:51:51.865Z,7.67
2019-04-22T22:54:20.013Z,8.47
2019-04-22T22:56:55.582Z,13.10
2019-04-22T22:59:18.204Z,8.57
2019-04-22T23:01:48.475Z,10.07
2019-04-22T23:04:23.697Z,8.47
2019-04-22T23:06:53.088Z,8.90
2019-04-22T23:09:22.549Z,9.33
2019-04-22T23:12:06.489Z,13.10
2019-04-22T23:14:21.922Z,9.57
2019-04-22T23:16:39.404Z,10.63
2019-04-22T23:19:04.467Z,8.33
2019-04-22T23:21:39.629Z,9.70
2019-04-22T23:24:29.861Z,12.87
2019-04-22T23:26:58.607Z,9.10
2019-04-22T23:29:26.164Z,8.47
2019-04-22T23:32:08.967Z,8.80
2019-04-22T23:34:42.912Z,11.00
2019-04-22T23:37:19.125Z,8.70
2019-04-22T23:42:41.122Z,12.57
2019-04-22T23:44:56.310Z,12.87
2019-04-22T23:47:24.329Z,6.90
2019-04-22T23:49:56.116Z,8.43
2019-04-22T23:52:35.619Z,7.27
2019-04-22T23:55:11.515Z,12.37
2019-04-22T23:57:56.989Z,12.03
